Terminal Aerodrome Forecast
Issued by NWS

Home | Current Version | Previous Version | Graphics & Text | Print | Product List | Glossary On
Versions: 1 2 3 4 5 6 7 8 9 10 11 12 13 14 15 16 17
000
FTUS42 KMHX 242340
TAFISO
TAF
KISO 242340Z 2500/2524 08012KT 4SM SHRA BKN007 OVC015
      TEMPO 2500/2504 2SM +SHRA BKN007
     FM250800 06007KT 3SM SHRA OVC007
     FM251500 20006KT 6SM -SHRA BKN015
     FM251800 VRB05KT P6SM VCSH BKN025
      AMD LTD TO CLD VIS AND WIND=

USA.gov is the U.S. government's official web portal to all federal, state and local government web resources and services.